Filip Lindelof

Recruteur - AIK
9 Oct 2027
Samedi
Processus

Personnalité

Adaptabilité (12) Ambition (8) Controverse (9) Loyauté (16) Pression (16) Professionnalisme (13) Sportivité (8) Tempérament (15)

Profil

Style d'entraînement Démocratique
Diplôme National C
Détermination 12
Gestion des joueurs 10
Motivation 10
Discipline 12
Satisfaction professionnelle
88%
Fatigue
0%
Rôle Recruteur
Salaire 62.0K p/s
Contrat 30.06.2030

Performance

Comportement Bon
Efficacité de l'entraînement
31%
Développement des joueurs
40%
Prévention des blessures
20%
Mise en place tactique
40%

Événements récents

A participé à une réunion de recrutement 7j
A participé à une réunion de recrutement 14j
A participé à une réunion de recrutement 21j
A participé à une réunion de recrutement 28j
A participé à une réunion de recrutement 35j
A participé à une réunion de recrutement 42j
A participé à une réunion de recrutement 49j
A participé à une réunion de recrutement 56j

Suivi en cours

89
Joueur Club Statut Capacité Confiance Observé Dernière observation Dernier vote
Edwin Asamoah Berekum Chelsea Actif 82 / 97 40% 6 15.07.2027 -
Daniel Kelly Derby County Actif 118 / 126 40% 1 15.07.2027 -
Alan Morinigo Olimpia Actif 122 / 109 40% 1 15.07.2027 -
Daniel Vernattus Metalist Actif 97 / 93 40% 1 14.07.2027 -
Ibrahim Sabiu Bendel Insurance Actif 81 / 99 40% 1 14.07.2027 -
T-Jay Parfitt Cardiff City Actif 89 / 101 40% 1 14.07.2027 -
Lucas Bergvall Tottenham Actif 140 / 164 40% 7 11.07.2027 -
Maxwell Azafokpe Inter Allies Actif 82 / 83 40% 4 11.07.2027 -
Lucas Høgsberg Paris Saint-Germain Actif 144 / 137 40% 1 11.07.2027 -
Jacob Wright Norwich City Actif 124 / 125 40% 2 09.07.2027 -
Riley Owen Wycombe Wanderers Actif 114 / 104 40% 2 09.07.2027 -
Adam Idah Swansea City Actif 122 / 123 40% 2 07.07.2027 -
Mohamed-Ali Cho Hull City Actif 144 / 137 40% 2 07.07.2027 -
Victor Torp Coventry City Actif 133 / 141 40% 1 07.07.2027 -
John Yeboah Venezia Actif 124 / 129 40% 2 06.07.2027 -
Tyreece Campbell Charlton Athletic Actif 122 / 126 40% 3 06.07.2027 -
Tammer Kumar West Bromwich Albion Perdu 114 / 129 40% 1 06.07.2027 -
Samuel Lucero Defensa y Justicia Actif 115 / 110 40% 1 02.07.2027 -
Sascha Britschgi Catanzaro Actif 113 / 125 40% 4 30.06.2027 -
Pablo Felipe West Ham United Actif 144 / 134 40% 1 29.06.2027 -
Jay Stansfield Birmingham Actif 138 / 133 40% 2 27.06.2027 -
Josh Coburn Millwall Actif 127 / 124 40% 1 27.06.2027 -
Joe Gelhardt Hull City Actif 140 / 133 40% 4 26.06.2027 -
Tommy Conway Middlesbrough Actif 140 / 137 40% 4 26.06.2027 -
Zeki Amdouni Burnley Actif 131 / 129 40% 1 26.06.2027 -
Lewis McCann Fleetwood Town Actif 99 / 97 40% 4 25.06.2027 -
Fabrizio Cavegn Bristol Rovers Actif 104 / 108 40% 2 25.06.2027 -
Dale Taylor Blackpool Actif 117 / 116 40% 1 25.06.2027 -
Leonardo Mendicino Bari Perdu 106 / 118 40% 4 23.06.2027 -
Tommaso Cecotti Carpi Actif 90 / 97 40% 1 23.06.2027 -
Alexander Warneryd Tromso Actif 110 / 120 40% 1 23.06.2027 -
Matteo Pérez Vinlöf Dinamo Zagreb Actif 117 / 119 40% 4 21.06.2027 -
Jonathan De Irastorza Levante Actif 117 / 120 40% 2 21.06.2027 -
Rhys Chadwick Gillingham Actif 107 / 115 40% 1 20.06.2027 -
Gonçalo Oliveira Benfica Actif 106 / 125 40% 2 16.06.2027 -
Bradley Fink Wycombe Wanderers Actif 106 / 104 40% 2 16.06.2027 -
Cameron Archer Southampton Actif 121 / 130 40% 1 16.06.2027 -
Richard Koné Queens Park Rangers Actif 132 / 116 40% 3 14.06.2027 -
Lorent Tolaj Plymouth Argyle Actif 119 / 129 40% 1 14.06.2027 -
Camilo Durán Bloemfontein Celtic Actif 131 / 116 40% 1 14.06.2027 -
Aidomo Emakhu Oxford United Actif 128 / 127 40% 2 12.06.2027 -
Kelly Saravanan Salford City Actif 107 / 116 40% 2 12.06.2027 -
Giacomo Raspadori Atalanta Actif 146 / 138 40% 1 09.06.2027 -
Davide Bartesaghi AC Milan Actif 130 / 135 40% 1 08.06.2027 -
Godwin Oham Warri Wolves Actif 81 / 98 40% 1 08.06.2027 -
Maeson King Blackpool Actif 112 / 108 40% 1 08.06.2027 -
Martim Cunha Porto Perdu 110 / 103 40% 2 04.06.2027 -
Enzo Cardozo Virtus Entella Actif 114 / 112 40% 1 04.06.2027 -
Malik Mothersille Stockport County Actif 123 / 126 40% 2 03.06.2027 -
Wilson Isidor Sunderland Actif 140 / 144 40% 2 03.06.2027 -
Giorgi Kvernadze Frosinone Actif 126 / 121 40% 1 02.06.2027 -
Aune Heggebø West Bromwich Albion Actif 135 / 124 40% 3 01.06.2027 -
Rumarn Burrell Queens Park Rangers Actif 123 / 127 40% 1 01.06.2027 -
Tyrese Campbell Sheffield United Actif 134 / 132 40% 2 25.05.2027 -
Dávid Strelec Middlesbrough Actif 146 / 134 40% 1 24.05.2027 -
Dennis Konney Berekum Chelsea Actif 75 / 89 40% 2 22.05.2027 -
Pietro Reggiori Pro Patria Actif 92 / 105 40% 2 22.05.2027 -
Victor Ehibe Gazelle Garoua Actif 80 / 89 40% 1 18.05.2027 -
Mattia Felici Cagliari Actif 134 / 137 40% 2 17.05.2027 -
Leandro Martins Benfica Actif 86 / 95 40% 1 13.05.2027 -
Juan David Arizala Udinese Actif 118 / 128 40% 1 10.05.2027 -
Simone Kosijer Triestina Actif 88 / 95 40% 1 10.05.2027 -
Surprise Manthosi Polokwane City Actif 84 / 103 40% 1 10.05.2027 -
Mees Rijks Bristol Rovers Actif 109 / 122 40% 1 06.05.2027 -
Joffrey Ngambaka Nguba Atvidaberg Actif 80 / 85 30% 1 / 1m 05.05.2027 -
Valdemar Grymer Falkenberg Actif 75 / 80 42% 1 / 1m 05.05.2027 -
Lucas Jetten Cambuur Actif 100 / 129 40% 1 24.04.2027 -
Sindre Walle Egeli Nottingham Forest Actif 131 / 137 40% 1 22.04.2027 -
Abu Kamara Portsmouth Actif 114 / 123 40% 1 22.04.2027 -
Sam Curtis Swindon Town Actif 95 / 114 40% 2 21.04.2027 -
Yousef Salech Cardiff City Actif 136 / 122 40% 2 21.04.2027 -
Zoltan Bese Haladas Actif 109 / 128 40% 1 21.04.2027 -
Jofre Torrents Ajax Actif 121 / 131 40% 1 19.04.2027 -
Sam Greenwood Bristol City Actif 127 / 124 40% 1 17.04.2027 -
Lamine Cissé Peterborough United Actif 126 / 117 40% 1 15.04.2027 -
Riquelme Thompson-Jones Shrewsbury Town Actif 94 / 111 40% 2 13.04.2027 -
Chema Andrés Liverpool Actif 135 / 136 40% 1 10.04.2027 -
Caleb Yirenkyi Coventry City Actif 138 / 134 40% 1 10.04.2027 -
Christos Mouzakitis Hull City Actif 135 / 138 40% 1 09.04.2027 -
Eduardo Felicíssimo Sporting CP Actif 102 / 116 40% 1 08.04.2027 -
Amin Sarr Hellas Verona Actif 128 / 117 40% 3 07.04.2027 -
Abraham Paintsil Hasaacas Actif 78 / 100 40% 2 05.04.2027 -
Edmund Nuhu BA All Stars Actif 83 / 79 40% 2 05.04.2027 -
Luciano Peluso Giugliano Actif 90 / 96 40% 1 26.03.2027 -
David Ozoh Derby County Actif 131 / 117 40% 1 26.03.2027 -
Eivind Helland Bologna Actif 135 / 130 40% 1 25.03.2027 -
Jeffrey Adjei Wa All Stars Actif 89 / 99 40% 2 24.03.2027 -
Harvey Blair Portsmouth Actif 119 / 114 40% 1 24.03.2027 -
Stephen Amankona Aduana Stars Actif 88 / 98 40% 1 18.03.2027 -